createdAt,value
2017-11-23T00:01:00.190Z,4.43
2017-11-23T00:03:26.409Z,3.97
2017-11-23T00:05:53.409Z,4.17
2017-11-23T00:08:19.602Z,4.27
2017-11-23T00:10:45.824Z,4.37
2017-11-23T00:13:12.841Z,4.00
2017-11-23T00:15:39.033Z,3.70
2017-11-23T00:18:05.216Z,3.60
2017-11-23T00:20:32.403Z,3.77
2017-11-23T00:22:58.556Z,4.13
2017-11-23T00:25:24.743Z,4.27
2017-11-23T00:27:50.970Z,4.10
2017-11-23T00:30:17.212Z,3.70
2017-11-23T00:32:43.448Z,4.53
2017-11-23T00:35:09.691Z,3.63
2017-11-23T00:37:35.924Z,4.63
2017-11-23T00:40:02.133Z,3.43
2017-11-23T00:42:28.347Z,3.53
2017-11-23T00:44:54.560Z,3.73
2017-11-23T00:47:20.811Z,3.50
2017-11-23T00:49:47.140Z,3.60
2017-11-23T00:52:13.376Z,4.80
2017-11-23T00:54:39.617Z,4.70
2017-11-23T00:57:05.898Z,4.63
2017-11-23T00:59:32.109Z,4.87
2017-11-23T01:01:59.069Z,4.10
2017-11-23T01:04:26.107Z,3.60
2017-11-23T01:06:53.121Z,5.00
2017-11-23T01:09:19.345Z,4.47
2017-11-23T01:11:45.613Z,5.73
2017-11-23T01:14:12.591Z,4.87
2017-11-23T01:16:38.756Z,4.67
2017-11-23T01:19:05.036Z,4.90
2017-11-23T01:21:31.216Z,4.90
2017-11-23T01:23:57.460Z,4.17
2017-11-23T01:26:24.406Z,4.73
2017-11-23T01:28:50.606Z,4.00
2017-11-23T01:31:16.874Z,4.77
2017-11-23T01:33:43.775Z,4.27
2017-11-23T01:36:10.022Z,4.83
2017-11-23T01:38:36.962Z,3.87
2017-11-23T01:41:03.232Z,3.77
2017-11-23T01:43:29.440Z,4.37
2017-11-23T01:45:55.633Z,4.00
2017-11-23T01:48:22.157Z,4.40
2017-11-23T01:50:48.448Z,3.87
2017-11-23T01:53:14.703Z,4.30
2017-11-23T01:55:41.044Z,3.80
2017-11-23T01:58:07.297Z,3.73
2017-11-23T02:00:33.596Z,3.50
2017-11-23T02:02:59.864Z,3.20
2017-11-23T02:05:26.065Z,3.60
2017-11-23T02:07:52.403Z,2.67
2017-11-23T02:10:19.060Z,2.80
2017-11-23T02:12:46.052Z,3.33
2017-11-23T02:15:12.305Z,3.87
2017-11-23T02:17:38.572Z,4.00
2017-11-23T02:20:05.592Z,3.10
2017-11-23T02:22:31.875Z,3.27
2017-11-23T02:24:58.160Z,3.37
2017-11-23T02:27:25.209Z,3.30
2017-11-23T02:29:51.456Z,3.20
2017-11-23T02:32:17.763Z,3.47
2017-11-23T02:34:44.076Z,3.53
2017-11-23T02:37:10.404Z,3.30
2017-11-23T02:39:36.626Z,3.03
2017-11-23T02:42:02.895Z,3.03
2017-11-23T02:44:30.504Z,3.30
2017-11-23T02:46:56.791Z,3.10
2017-11-23T02:49:23.800Z,3.17
2017-11-23T02:51:50.306Z,3.40
2017-11-23T02:54:16.552Z,3.23
2017-11-23T02:56:42.771Z,3.00
2017-11-23T02:59:09.042Z,3.10
2017-11-23T03:01:35.233Z,3.30
2017-11-23T03:04:01.472Z,3.30
2017-11-23T03:06:27.756Z,3.50
2017-11-23T03:08:54.791Z,3.17
2017-11-23T03:11:21.079Z,3.07
2017-11-23T03:13:47.348Z,3.07
2017-11-23T03:16:14.309Z,2.90
2017-11-23T03:18:40.580Z,3.17
2017-11-23T03:21:06.784Z,3.07
2017-11-23T03:23:33.759Z,4.27
2017-11-23T03:26:00.024Z,2.50
2017-11-23T03:28:26.960Z,3.00
2017-11-23T03:30:54.888Z,2.67
2017-11-23T03:33:21.144Z,3.03
2017-11-23T03:35:47.354Z,3.43
2017-11-23T03:38:13.562Z,3.47
2017-11-23T03:40:40.589Z,3.50
2017-11-23T03:43:07.653Z,2.97
2017-11-23T03:45:34.695Z,3.40
2017-11-23T03:48:01.676Z,3.40
2017-11-23T03:50:27.908Z,3.60
2017-11-23T03:52:54.198Z,4.20
2017-11-23T03:55:21.174Z,3.30
2017-11-23T03:57:47.416Z,3.53
2017-11-23T04:00:13.736Z,3.20
2017-11-23T04:02:39.964Z,3.30
2017-11-23T04:05:06.232Z,2.90
2017-11-23T04:07:32.476Z,2.60
2017-11-23T04:09:59.425Z,3.30
2017-11-23T04:12:26.422Z,3.20
2017-11-23T04:14:52.647Z,3.10
2017-11-23T04:17:18.928Z,2.97
2017-11-23T04:19:45.955Z,3.83
2017-11-23T04:22:12.965Z,3.70
2017-11-23T04:24:39.189Z,4.07
2017-11-23T04:27:05.503Z,3.13
2017-11-23T04:29:31.747Z,3.23
2017-11-23T04:31:57.937Z,3.43
2017-11-23T04:34:24.138Z,3.10
2017-11-23T04:36:50.380Z,3.17
2017-11-23T04:39:16.587Z,2.80
2017-11-23T04:41:42.859Z,2.87
2017-11-23T04:44:09.871Z,2.80
2017-11-23T04:46:36.140Z,3.23
2017-11-23T04:49:02.384Z,3.60
2017-11-23T04:51:28.627Z,4.67
2017-11-23T04:53:54.892Z,3.87
2017-11-23T04:56:21.870Z,3.50
2017-11-23T04:58:48.814Z,3.97
2017-11-23T05:01:15.838Z,3.30
2017-11-23T05:03:42.044Z,3.27
2017-11-23T05:06:08.212Z,3.73
2017-11-23T05:08:35.143Z,3.83
2017-11-23T05:11:01.305Z,5.27
2017-11-23T05:13:27.496Z,4.67
2017-11-23T05:15:53.776Z,4.40
2017-11-23T05:18:19.999Z,4.90
2017-11-23T05:20:46.213Z,5.17
2017-11-23T05:23:13.166Z,4.70
2017-11-23T05:25:39.418Z,4.60
2017-11-23T05:28:05.685Z,4.40
2017-11-23T05:30:31.921Z,4.40
2017-11-23T05:32:58.895Z,4.33
2017-11-23T05:35:26.073Z,4.53
2017-11-23T05:38:04.516Z,5.00
2017-11-23T05:40:32.342Z,5.20
2017-11-23T05:42:58.596Z,5.23
2017-11-23T05:45:24.821Z,4.70
2017-11-23T05:47:50.977Z,4.10
2017-11-23T05:50:17.169Z,4.73
2017-11-23T05:52:43.400Z,4.33
2017-11-23T05:55:09.656Z,3.97
2017-11-23T05:57:35.859Z,3.63
2017-11-23T06:00:02.082Z,4.77
2017-11-23T06:02:28.277Z,4.10
2017-11-23T06:04:54.471Z,4.13
2017-11-23T06:07:36.462Z,3.67
2017-11-23T06:10:07.084Z,4.50
2017-11-23T06:12:33.338Z,3.60
2017-11-23T06:15:00.333Z,3.57
2017-11-23T06:17:29.660Z,4.30
2017-11-23T06:19:55.919Z,4.12
2017-11-23T06:22:22.853Z,3.27
2017-11-23T06:24:49.761Z,4.07
2017-11-23T06:27:15.966Z,3.97
2017-11-23T06:29:42.184Z,3.80
2017-11-23T06:32:09.264Z,3.30
2017-11-23T06:34:35.458Z,3.73
2017-11-23T06:37:01.698Z,4.93
2017-11-23T06:39:27.894Z,17.53
2017-11-23T06:41:54.825Z,12.57
2017-11-23T06:44:21.032Z,9.00
2017-11-23T06:46:47.280Z,7.73
2017-11-23T06:49:13.472Z,6.80
2017-11-23T06:51:39.699Z,6.67
2017-11-23T06:54:05.918Z,6.60
2017-11-23T06:56:33.261Z,5.07
2017-11-23T06:58:59.555Z,4.60
2017-11-23T07:01:26.536Z,5.80
2017-11-23T07:03:52.750Z,4.43
2017-11-23T07:06:19.004Z,5.37
2017-11-23T07:08:45.278Z,5.97
2017-11-23T07:11:11.523Z,5.03
2017-11-23T07:13:38.463Z,4.70
2017-11-23T07:16:04.721Z,4.50
2017-11-23T07:18:30.864Z,5.47
2017-11-23T07:20:57.043Z,4.97
2017-11-23T07:23:23.241Z,4.70
2017-11-23T07:25:49.525Z,4.20
2017-11-23T07:28:19.575Z,6.20
2017-11-23T07:30:45.805Z,4.20
2017-11-23T07:33:12.079Z,4.07
2017-11-23T07:35:40.420Z,4.23
2017-11-23T07:38:10.856Z,4.17
2017-11-23T07:40:41.277Z,4.60
2017-11-23T07:43:11.097Z,4.53
2017-11-23T07:45:40.211Z,4.70
2017-11-23T07:48:09.666Z,3.70
2017-11-23T07:50:39.796Z,4.97
2017-11-23T07:53:06.082Z,4.23
2017-11-23T07:55:33.051Z,4.20
2017-11-23T07:58:00.177Z,3.70
2017-11-23T08:00:28.107Z,4.03
2017-11-23T08:02:54.317Z,3.47
2017-11-23T08:05:21.336Z,3.70
2017-11-23T08:07:49.542Z,4.20
2017-11-23T08:10:15.822Z,3.23
2017-11-23T08:12:43.543Z,4.67
2017-11-23T08:15:11.200Z,4.07
2017-11-23T08:17:37.413Z,3.37
2017-11-23T08:20:05.128Z,3.87
2017-11-23T08:22:34.492Z,3.93
2017-11-23T08:25:03.481Z,4.13
2017-11-23T08:27:30.632Z,4.00
2017-11-23T08:29:56.843Z,4.00
2017-11-23T08:32:23.061Z,3.37
2017-11-23T08:34:49.306Z,3.83
2017-11-23T08:37:15.518Z,3.37
2017-11-23T08:39:41.705Z,3.90
2017-11-23T08:42:08.009Z,3.60
2017-11-23T08:44:35.914Z,4.30
2017-11-23T08:47:02.215Z,4.43
2017-11-23T08:49:28.492Z,3.93
2017-11-23T08:51:56.337Z,4.40
2017-11-23T08:54:22.526Z,4.37
2017-11-23T08:56:50.778Z,4.23
2017-11-23T08:59:17.788Z,3.40
2017-11-23T09:01:45.877Z,3.50
2017-11-23T09:04:13.839Z,3.77
2017-11-23T09:06:40.888Z,3.43
2017-11-23T09:09:07.866Z,3.90
2017-11-23T09:11:34.065Z,3.90
2017-11-23T09:14:01.030Z,4.40
2017-11-23T09:16:27.323Z,4.47
2017-11-23T09:18:54.292Z,4.23
2017-11-23T09:21:21.306Z,3.60
2017-11-23T09:23:47.576Z,3.90
2017-11-23T09:26:13.835Z,3.80
2017-11-23T09:28:40.058Z,4.33
2017-11-23T09:31:06.275Z,3.40
2017-11-23T09:33:32.533Z,3.90
2017-11-23T09:35:58.792Z,4.40
2017-11-23T09:38:25.853Z,4.07
2017-11-23T09:40:53.752Z,4.13
2017-11-23T09:43:20.058Z,6.50
2017-11-23T09:45:46.310Z,6.97
2017-11-23T09:48:12.568Z,9.93
2017-11-23T09:50:38.859Z,5.83
2017-11-23T09:53:05.102Z,7.17
2017-11-23T09:55:31.401Z,9.10
2017-11-23T09:57:58.414Z,7.70
2017-11-23T10:00:24.669Z,5.43
2017-11-23T10:02:51.699Z,4.13
2017-11-23T10:05:18.700Z,4.37
2017-11-23T10:07:44.916Z,3.47
2017-11-23T10:10:11.174Z,3.73
2017-11-23T10:12:37.401Z,4.17
2017-11-23T10:15:03.584Z,4.27
2017-11-23T10:17:30.526Z,3.83
2017-11-23T10:19:57.533Z,6.40
2017-11-23T10:22:23.775Z,5.03
2017-11-23T10:24:49.988Z,5.10
2017-11-23T10:27:16.172Z,4.50
2017-11-23T10:29:42.409Z,4.10
2017-11-23T10:32:08.578Z,4.20
2017-11-23T10:34:34.820Z,5.00
2017-11-23T10:37:01.036Z,5.70
2017-11-23T10:39:27.208Z,4.93
2017-11-23T10:41:54.365Z,4.20
2017-11-23T10:44:20.570Z,5.23
2017-11-23T10:46:47.573Z,4.60
2017-11-23T10:49:13.892Z,4.77
2017-11-23T10:51:40.139Z,4.83
2017-11-23T10:54:06.355Z,4.80
2017-11-23T10:56:32.872Z,3.90
2017-11-23T10:58:59.050Z,4.07
2017-11-23T11:01:25.996Z,4.17
2017-11-23T11:03:52.275Z,4.40
2017-11-23T11:06:18.448Z,4.53
2017-11-23T11:08:44.668Z,3.90
2017-11-23T11:11:10.913Z,5.07
2017-11-23T11:13:37.130Z,5.10
2017-11-23T11:16:03.376Z,5.20
2017-11-23T11:18:29.676Z,4.60
2017-11-23T11:20:55.850Z,4.10
2017-11-23T11:23:22.093Z,4.30
2017-11-23T11:25:48.380Z,4.30
2017-11-23T11:28:14.647Z,4.00
2017-11-23T11:30:40.874Z,3.63
2017-11-23T11:33:07.110Z,4.50
2017-11-23T11:35:33.327Z,4.20
2017-11-23T11:37:59.492Z,3.90
2017-11-23T11:40:26.172Z,3.80
2017-11-23T11:43:11.200Z,3.80
2017-11-23T11:45:38.491Z,4.17
2017-11-23T11:48:04.688Z,4.20
2017-11-23T11:50:31.679Z,3.90
2017-11-23T11:52:57.936Z,4.47
2017-11-23T11:55:24.217Z,4.20
2017-11-23T11:57:50.449Z,4.27
2017-11-23T12:03:08.456Z,4.50
2017-11-23T12:05:34.746Z,3.70
2017-11-23T12:08:00.972Z,3.90
2017-11-23T12:10:27.196Z,3.70
2017-11-23T12:12:53.451Z,4.40
2017-11-23T12:15:32.059Z,4.47
2017-11-23T12:18:10.717Z,5.73
2017-11-23T12:23:40.606Z,6.47
2017-11-23T12:26:13.051Z,6.67
2017-11-23T12:31:33.950Z,4.70
2017-11-23T12:34:00.168Z,4.40
2017-11-23T12:36:26.383Z,4.50
2017-11-23T12:38:52.605Z,4.70
2017-11-23T12:41:18.837Z,4.53
2017-11-23T12:43:45.028Z,4.83
2017-11-23T12:46:11.226Z,4.50
2017-11-23T12:48:37.379Z,3.90
2017-11-23T12:51:04.361Z,3.80
2017-11-23T12:53:30.647Z,3.90
2017-11-23T12:55:57.586Z,2.83
2017-11-23T12:58:24.494Z,3.50
2017-11-23T13:00:50.681Z,4.03
2017-11-23T13:03:16.822Z,4.20
2017-11-23T13:05:42.983Z,4.50
2017-11-23T13:08:09.130Z,3.57
2017-11-23T13:10:36.097Z,5.00
2017-11-23T13:13:02.260Z,3.73
2017-11-23T13:15:28.501Z,4.23
2017-11-23T13:17:54.675Z,4.13
2017-11-23T13:20:21.574Z,3.70
2017-11-23T13:22:47.787Z,4.40
2017-11-23T13:25:14.002Z,4.27
2017-11-23T13:27:40.160Z,4.07
2017-11-23T13:30:06.333Z,3.60
2017-11-23T13:32:33.352Z,3.43
2017-11-23T13:34:59.543Z,3.50
2017-11-23T13:37:25.703Z,3.70
2017-11-23T13:39:51.943Z,3.97
2017-11-23T13:42:18.901Z,4.30
2017-11-23T13:44:45.139Z,4.07
2017-11-23T13:47:11.324Z,4.00
2017-11-23T13:49:37.541Z,4.90
2017-11-23T13:52:03.732Z,4.27
2017-11-23T13:54:29.962Z,3.80
2017-11-23T13:56:56.195Z,4.50
2017-11-23T13:59:22.379Z,4.00
2017-11-23T14:01:48.613Z,4.43
2017-11-23T14:04:15.558Z,4.53
2017-11-23T14:06:41.798Z,4.87
2017-11-23T14:09:08.690Z,4.80
2017-11-23T14:11:34.921Z,4.90
2017-11-23T14:14:01.117Z,3.90
2017-11-23T14:16:27.401Z,4.60
2017-11-23T14:18:53.579Z,4.13
2017-11-23T14:21:19.802Z,3.70
2017-11-23T14:23:45.958Z,3.93
2017-11-23T14:26:12.147Z,4.00
2017-11-23T14:28:38.337Z,4.57
2017-11-23T14:31:04.533Z,3.90
2017-11-23T14:33:30.698Z,4.70
2017-11-23T14:35:56.894Z,4.13
2017-11-23T14:38:23.057Z,3.77
2017-11-23T14:40:49.250Z,3.37
2017-11-23T14:43:15.463Z,4.23
2017-11-23T14:45:41.673Z,3.53
2017-11-23T14:48:07.905Z,3.90
2017-11-23T14:50:34.122Z,3.73
2017-11-23T14:53:00.429Z,3.93
2017-11-23T14:55:27.335Z,4.43
2017-11-23T14:57:53.502Z,4.37
2017-11-23T15:00:19.718Z,3.97
2017-11-23T15:02:45.885Z,3.77
2017-11-23T15:05:12.112Z,3.70
2017-11-23T15:07:38.276Z,3.80
2017-11-23T15:10:04.463Z,4.37
2017-11-23T15:12:30.663Z,4.63
2017-11-23T15:14:56.833Z,6.67
2017-11-23T15:17:23.010Z,8.00
2017-11-23T15:19:49.188Z,6.77
2017-11-23T15:22:15.339Z,6.67
2017-11-23T15:24:41.572Z,6.80
2017-11-23T15:27:07.790Z,6.50
2017-11-23T15:29:34.025Z,4.80
2017-11-23T15:32:00.285Z,3.97
2017-11-23T15:34:26.450Z,3.83
2017-11-23T15:36:52.597Z,4.03
2017-11-23T15:39:18.734Z,4.20
2017-11-23T15:41:44.910Z,4.03
2017-11-23T15:44:11.820Z,4.03
2017-11-23T15:46:38.051Z,6.50
2017-11-23T15:49:04.270Z,4.47
2017-11-23T15:51:30.431Z,4.90
2017-11-23T15:53:57.330Z,4.00
2017-11-23T15:56:23.525Z,4.13
2017-11-23T15:58:50.510Z,4.07
2017-11-23T16:01:16.703Z,3.83
2017-11-23T16:03:42.909Z,3.93
2017-11-23T16:06:09.782Z,3.93
2017-11-23T16:08:35.944Z,4.33
2017-11-23T16:11:02.130Z,4.87
2017-11-23T16:13:28.325Z,4.23
2017-11-23T16:15:55.266Z,3.70
2017-11-23T16:18:21.456Z,4.33
2017-11-23T16:20:47.705Z,4.10
2017-11-23T16:23:13.931Z,4.10
2017-11-23T16:25:40.117Z,4.40
2017-11-23T16:28:06.350Z,4.50
2017-11-23T16:30:32.638Z,4.97
2017-11-23T16:32:59.574Z,4.60
2017-11-23T16:35:25.775Z,4.47
2017-11-23T16:38:01.911Z,5.07
2017-11-23T16:40:43.235Z,12.17
2017-11-23T16:43:16.390Z,6.13
2017-11-23T16:45:48.732Z,18.37
2017-11-23T16:48:21.917Z,12.47
2017-11-23T16:50:53.960Z,5.00
2017-11-23T16:53:26.326Z,4.47
2017-11-23T16:59:00.311Z,5.57
2017-11-23T17:01:32.570Z,5.83
2017-11-23T17:04:20.535Z,4.17
2017-11-23T17:06:52.794Z,5.10
2017-11-23T17:09:19.980Z,4.50
2017-11-23T17:11:52.346Z,4.20
2017-11-23T17:14:33.469Z,4.50
2017-11-23T17:17:17.083Z,4.33
2017-11-23T17:19:43.341Z,4.37
2017-11-23T17:22:09.578Z,4.53
2017-11-23T17:24:36.782Z,6.13
2017-11-23T17:27:02.957Z,5.13
2017-11-23T17:29:29.162Z,4.77
2017-11-23T17:31:56.043Z,4.03
2017-11-23T17:34:22.266Z,4.37
2017-11-23T17:36:48.434Z,4.33
2017-11-23T17:39:14.611Z,3.77
2017-11-23T17:41:40.832Z,4.70
2017-11-23T17:44:06.982Z,4.00
2017-11-23T17:46:33.186Z,4.50
2017-11-23T17:48:59.407Z,4.57
2017-11-23T17:51:26.326Z,4.57
2017-11-23T17:53:52.522Z,4.63
2017-11-23T17:56:19.023Z,4.87
2017-11-23T17:58:45.199Z,4.50
2017-11-23T18:01:11.411Z,4.43
2017-11-23T18:03:37.665Z,5.23
2017-11-23T18:06:03.855Z,5.43
2017-11-23T18:08:30.078Z,6.63
2017-11-23T18:10:56.207Z,6.20
2017-11-23T18:13:22.359Z,5.40
2017-11-23T18:15:48.525Z,6.20
2017-11-23T18:18:14.748Z,5.83
2017-11-23T18:20:41.716Z,5.63
2017-11-23T18:23:07.920Z,6.60
2017-11-23T18:25:34.862Z,5.33
2017-11-23T18:28:01.013Z,5.87
2017-11-23T18:30:28.333Z,5.30
2017-11-23T18:32:54.588Z,6.00
2017-11-23T18:35:21.474Z,7.00
2017-11-23T18:37:47.590Z,6.53
2017-11-23T18:40:13.781Z,6.43
2017-11-23T18:42:40.753Z,6.80
2017-11-23T18:45:06.895Z,6.63
2017-11-23T18:47:33.117Z,8.10
2017-11-23T18:49:59.335Z,7.17
2017-11-23T18:52:25.519Z,7.30
2017-11-23T18:54:51.723Z,6.53
2017-11-23T18:57:17.903Z,6.37
2017-11-23T18:59:44.846Z,6.00
2017-11-23T19:02:11.051Z,5.47
2017-11-23T19:04:37.183Z,4.80
2017-11-23T19:07:04.137Z,5.63
2017-11-23T19:09:31.058Z,6.40
2017-11-23T19:11:57.249Z,6.03
2017-11-23T19:14:23.496Z,6.20
2017-11-23T19:16:49.774Z,6.03
2017-11-23T19:19:15.993Z,6.53
2017-11-23T19:21:42.972Z,5.87
2017-11-23T19:24:09.186Z,6.60
2017-11-23T19:26:35.388Z,6.30
2017-11-23T19:29:02.392Z,5.57
2017-11-23T19:31:28.601Z,5.40
2017-11-23T19:33:54.794Z,6.50
2017-11-23T19:36:21.764Z,5.40
2017-11-23T19:38:47.931Z,5.70
2017-11-23T19:41:14.181Z,5.70
2017-11-23T19:43:40.348Z,6.60
2017-11-23T19:46:06.561Z,6.40
2017-11-23T19:48:33.493Z,5.70
2017-11-23T19:51:00.521Z,6.10
2017-11-23T19:53:26.718Z,5.80
2017-11-23T19:55:52.887Z,6.00
2017-11-23T19:58:19.049Z,6.03
2017-11-23T20:00:45.191Z,7.83
2017-11-23T20:03:11.726Z,7.10
2017-11-23T20:05:37.895Z,8.90
2017-11-23T20:08:04.095Z,8.30
2017-11-23T20:10:30.342Z,7.00
2017-11-23T20:12:56.592Z,7.90
2017-11-23T20:15:22.818Z,6.50
2017-11-23T20:17:49.721Z,7.10
2017-11-23T20:20:15.926Z,6.53
2017-11-23T20:22:42.145Z,6.70
2017-11-23T20:25:08.340Z,6.33
2017-11-23T20:27:35.273Z,6.00
2017-11-23T20:30:02.174Z,5.70
2017-11-23T20:32:28.381Z,5.30
2017-11-23T20:34:54.570Z,7.30
2017-11-23T20:37:20.788Z,6.40
2017-11-23T20:39:46.950Z,7.37
2017-11-23T20:42:13.962Z,6.43
2017-11-23T20:44:40.113Z,5.97
2017-11-23T20:47:06.339Z,5.90
2017-11-23T20:49:32.589Z,5.23
2017-11-23T20:51:58.794Z,5.17
2017-11-23T20:54:24.964Z,5.40
2017-11-23T20:56:51.233Z,5.20
2017-11-23T20:59:17.519Z,5.87
2017-11-23T21:01:43.689Z,5.17
2017-11-23T21:04:09.887Z,5.40
2017-11-23T21:06:36.115Z,5.23
2017-11-23T21:09:02.413Z,4.70
2017-11-23T21:11:29.323Z,5.00
2017-11-23T21:13:55.513Z,5.00
2017-11-23T21:16:21.800Z,5.53
2017-11-23T21:18:47.971Z,5.67
2017-11-23T21:21:14.261Z,5.63
2017-11-23T21:23:41.192Z,4.90
2017-11-23T21:26:07.410Z,5.20
2017-11-23T21:28:34.371Z,5.50
2017-11-23T21:31:00.623Z,5.77
2017-11-23T21:33:27.554Z,5.73
2017-11-23T21:35:53.782Z,6.40
2017-11-23T21:38:20.738Z,5.40
2017-11-23T21:40:47.688Z,7.17
2017-11-23T21:43:14.575Z,7.30
2017-11-23T21:45:40.749Z,7.10
2017-11-23T21:48:07.716Z,7.60
2017-11-23T21:50:33.893Z,8.70
2017-11-23T21:53:00.051Z,6.60
2017-11-23T21:55:26.964Z,6.00
2017-11-23T21:57:53.083Z,5.97
2017-11-23T22:00:19.254Z,5.70
2017-11-23T22:02:46.411Z,6.00
2017-11-23T22:05:12.870Z,5.93
2017-11-23T22:07:39.364Z,5.77
2017-11-23T22:10:05.792Z,5.73
2017-11-23T22:12:32.334Z,6.40
2017-11-23T22:14:58.869Z,5.70
2017-11-23T22:17:25.378Z,5.90
2017-11-23T22:19:51.792Z,6.03
2017-11-23T22:22:18.481Z,6.47
2017-11-23T22:24:45.534Z,6.07
2017-11-23T22:27:12.018Z,6.03
2017-11-23T22:29:38.354Z,5.60
2017-11-23T22:32:04.550Z,6.10
2017-11-23T22:34:31.092Z,5.13
2017-11-23T22:36:57.483Z,7.10
2017-11-23T22:39:24.583Z,5.90
2017-11-23T22:41:50.954Z,6.17
2017-11-23T22:44:17.989Z,5.80
2017-11-23T22:46:45.263Z,5.50
2017-11-23T22:49:13.235Z,5.23
2017-11-23T22:51:39.923Z,5.23
2017-11-23T22:54:06.390Z,5.10
2017-11-23T22:56:32.957Z,4.87
2017-11-23T22:58:59.451Z,5.10
2017-11-23T23:01:26.708Z,5.83
2017-11-23T23:03:52.936Z,5.03
2017-11-23T23:06:19.130Z,5.50
2017-11-23T23:08:45.349Z,4.83
2017-11-23T23:11:11.545Z,5.20
2017-11-23T23:13:38.477Z,4.93
2017-11-23T23:16:04.837Z,5.10
2017-11-23T23:18:31.030Z,5.27
2017-11-23T23:20:57.171Z,5.00
2017-11-23T23:23:24.111Z,4.60
2017-11-23T23:25:51.024Z,5.20
2017-11-23T23:28:17.215Z,5.13
2017-11-23T23:30:43.413Z,4.73
2017-11-23T23:33:10.321Z,4.40
2017-11-23T23:35:36.544Z,5.27
2017-11-23T23:38:02.746Z,5.60
2017-11-23T23:40:28.899Z,4.37
2017-11-23T23:42:55.063Z,5.50
2017-11-23T23:45:21.994Z,4.87
2017-11-23T23:47:58.153Z,4.77
2017-11-23T23:50:24.333Z,5.10
2017-11-23T23:52:50.552Z,4.80
2017-11-23T23:55:16.794Z,4.57
2017-11-23T23:57:43.065Z,4.87
